Time;durP1;ratioP1;P1;durP2;ratioP2;P2;SDS_P1;SDS_P2;PMS_P1;PMS_P2;Temp;Humidity;BMP_temperature;BMP_pressure;BME280_temperature;BME280_humidity;BME280_pressure;Samples;Min_cycle;Max_cycle;Signal;HPM_P1;HPM_P2
2023/06/07 00:01:16;;;;;;;7.20;6.60;;;;;;;16.11;73.08;155499.25;5047998;28;20454;-79
2023/06/07 00:03:47;;;;;;;7.03;6.40;;;;;;;16.04;73.08;155482.38;5052286;28;20469;-79
2023/06/07 00:06:13;;;;;;;6.97;6.37;;;;;;;15.96;73.15;155461.56;5041236;28;20453;-79
2023/06/07 00:08:40;;;;;;;7.00;6.40;;;;;;;15.90;73.93;155445.94;5068925;28;20446;-79
2023/06/07 00:11:07;;;;;;;7.10;6.50;;;;;;;15.91;74.27;155447.25;5061592;28;20933;-79
2023/06/07 00:13:33;;;;;;;6.63;6.03;;;;;;;15.87;74.53;155436.81;5041281;28;20438;-79
2023/06/07 00:16:00;;;;;;;6.80;6.20;;;;;;;15.89;74.26;155443.31;5028337;28;20458;-80
2023/06/07 00:18:28;;;;;;;7.07;6.30;;;;;;;15.90;74.41;155444.63;5066637;28;20446;-79
2023/06/07 00:20:57;;;;;;;6.70;6.10;;;;;;;15.87;74.33;155436.81;5065507;28;20614;-79
2023/06/07 00:23:26;;;;;;;7.07;6.40;;;;;;;15.82;75.18;155426.44;5040018;28;20466;-79
2023/06/07 00:25:53;;;;;;;7.23;6.37;;;;;;;15.87;75.38;155438.13;5045536;28;20561;-79
2023/06/07 00:28:19;;;;;;;7.27;6.67;;;;;;;15.90;75.03;155445.94;5047840;28;20450;-79
2023/06/07 00:30:46;;;;;;;6.33;5.83;;;;;;;15.94;74.33;155456.31;5043250;28;20516;-79
2023/06/07 00:33:12;;;;;;;7.17;6.57;;;;;;;15.90;74.07;155445.94;5041032;28;20454;-79
2023/06/07 00:35:39;;;;;;;6.57;5.97;;;;;;;15.89;74.23;155443.31;5044597;28;20454;-79
2023/06/07 00:38:09;;;;;;;7.00;6.40;;;;;;;15.78;74.61;155414.72;5058838;28;21038;-79
2023/06/07 00:40:36;;;;;;;6.77;6.17;;;;;;;15.66;74.94;155383.53;5048474;28;20480;-79
2023/06/07 00:43:02;;;;;;;7.03;6.40;;;;;;;15.55;75.75;155356.25;5029787;28;20972;-79
2023/06/07 00:45:29;;;;;;;7.10;6.50;;;;;;;15.47;76.05;155335.44;5042007;28;20461;-79
2023/06/07 00:47:56;;;;;;;6.30;5.70;;;;;;;15.40;76.26;155315.91;5046424;28;20792;-79
2023/06/07 00:50:23;;;;;;;6.80;6.20;;;;;;;15.34;76.65;155301.59;5048276;28;20438;-79
2023/06/07 00:52:50;;;;;;;6.80;6.20;;;;;;;15.31;76.56;155292.50;5029697;28;20434;-79
2023/06/07 00:55:18;;;;;;;7.70;6.33;;;;;;;15.26;77.07;155280.81;5044816;28;20454;-79
2023/06/07 00:57:45;;;;;;;6.87;6.33;;;;;;;15.23;77.51;155273.00;5063572;28;20451;-79
2023/06/07 01:00:15;;;;;;;7.63;6.93;;;;;;;15.20;77.87;155265.19;5048919;28;20441;-79
2023/06/07 01:02:46;;;;;;;9.27;6.67;;;;;;;15.26;77.97;155280.81;5042471;28;20519;-79
2023/06/07 01:05:14;;;;;;;8.00;7.30;;;;;;;15.30;78.32;155291.22;5043306;28;20465;-79
2023/06/07 01:07:41;;;;;;;7.53;6.83;;;;;;;15.27;78.27;155282.13;5044312;28;20902;-79
2023/06/07 01:10:09;;;;;;;7.10;6.50;;;;;;;15.21;78.51;155267.81;5025396;28;20968;-79
2023/06/07 01:12:37;;;;;;;7.50;6.37;;;;;;;15.13;78.38;155248.34;5042947;28;20454;-78
2023/06/07 01:15:05;;;;;;;8.00;7.20;;;;;;;15.11;78.86;155243.16;5045387;28;20434;-78
2023/06/07 01:17:42;;;;;;;7.77;7.07;;;;;;;15.07;79.36;155232.72;5048093;28;20528;-78
2023/06/07 01:20:26;;;;;;;7.43;6.83;;;;;;;15.11;79.33;155243.16;5046895;28;20496;-78
2023/06/07 01:22:56;;;;;;;7.27;6.70;;;;;;;15.11;79.11;155241.84;5033461;28;20478;-78
2023/06/07 01:25:24;;;;;;;7.70;7.00;;;;;;;15.12;79.08;155244.41;5054379;28;20503;-78
2023/06/07 01:27:53;;;;;;;7.67;7.07;;;;;;;15.14;79.23;155250.91;5066748;28;20877;-78
2023/06/07 01:30:21;;;;;;;7.90;7.10;;;;;;;15.17;79.58;155257.41;5036425;28;20865;-78
2023/06/07 01:32:48;;;;;;;7.80;7.10;;;;;;;15.20;79.67;155266.50;5061043;28;20911;-78
2023/06/07 01:35:16;;;;;;;7.63;6.87;;;;;;;15.25;80.43;155278.19;5052506;28;20442;-78
2023/06/07 01:37:43;;;;;;;8.40;7.67;;;;;;;15.27;79.64;155283.44;5046340;28;20460;-78
2023/06/07 01:40:12;;;;;;;7.80;7.10;;;;;;;15.29;79.07;155288.63;5033250;28;20564;-78
2023/06/07 01:42:40;;;;;;;8.47;7.77;;;;;;;15.29;80.03;155288.63;5067327;28;20487;-78
2023/06/07 01:45:08;;;;;;;8.03;7.33;;;;;;;15.25;79.39;155279.50;5069577;28;20473;-78
2023/06/07 01:47:35;;;;;;;7.17;6.47;;;;;;;15.29;79.82;155288.63;5050662;28;20467;-78
2023/06/07 01:50:02;;;;;;;8.13;7.43;;;;;;;15.26;79.79;155280.81;5053069;28;20476;-78
2023/06/07 01:52:28;;;;;;;8.53;7.00;;;;;;;15.27;79.54;155282.13;5069263;28;20907;-78
2023/06/07 01:54:56;;;;;;;9.00;8.20;;;;;;;15.21;79.84;155267.81;5052274;28;20456;-78
2023/06/07 01:57:35;;;;;;;8.30;7.50;;;;;;;15.20;80.25;155266.50;5050486;28;20465;-78
2023/06/07 02:00:17;;;;;;;7.53;6.93;;;;;;;15.18;81.24;155260.00;5036828;28;20507;-78
2023/06/07 02:02:47;;;;;;;7.73;6.93;;;;;;;15.15;80.12;155252.22;5041813;28;20453;-78
2023/06/07 02:05:17;;;;;;;7.93;7.13;;;;;;;15.14;80.07;155249.66;5041563;28;20459;-78
2023/06/07 02:07:47;;;;;;;8.43;7.53;;;;;;;15.06;79.63;155228.84;5069794;28;20692;-78
2023/06/07 02:10:14;;;;;;;7.80;7.10;;;;;;;14.94;79.89;155198.94;5033173;28;20453;-78
2023/06/07 02:12:41;;;;;;;8.77;7.87;;;;;;;14.91;80.79;155189.84;5067372;28;20444;-78
2023/06/07 02:15:09;;;;;;;7.70;7.10;;;;;;;14.85;81.43;155174.28;5065102;28;20445;-78
2023/06/07 02:17:48;;;;;;;8.03;7.37;;;;;;;14.80;81.68;155161.31;5068166;28;20890;-78
2023/06/07 02:20:15;;;;;;;8.40;7.70;;;;;;;14.73;82.06;155143.09;5048400;28;20449;-78
2023/06/07 02:22:41;;;;;;;8.07;7.37;;;;;;;14.71;82.48;155137.91;5046844;28;20458;-78
2023/06/07 02:25:09;;;;;;;8.83;8.10;;;;;;;14.66;82.76;155124.91;5051642;28;20449;-78
2023/06/07 02:27:35;;;;;;;8.70;7.90;;;;;;;14.61;82.97;155114.50;5049508;28;20907;-78
2023/06/07 02:30:03;;;;;;;8.97;8.27;;;;;;;14.59;83.39;155108.00;5054395;28;20444;-78
2023/06/07 02:32:33;;;;;;;8.20;7.50;;;;;;;14.60;83.50;155110.63;5027971;28;20473;-78
2023/06/07 02:35:01;;;;;;;7.40;6.70;;;;;;;14.63;83.68;155118.41;5025675;28;20444;-78
2023/06/07 02:37:29;;;;;;;7.50;6.80;;;;;;;14.61;83.66;155114.50;5051131;28;20526;-78
2023/06/07 02:39:55;;;;;;;8.33;7.63;;;;;;;14.66;83.18;155126.22;5033899;28;20477;-78
2023/06/07 02:42:22;;;;;;;8.33;7.63;;;;;;;14.69;83.00;155132.72;5032926;28;20539;-78
2023/06/07 02:44:48;;;;;;;8.07;7.37;;;;;;;14.77;83.31;155153.50;5050250;28;20472;-78
2023/06/07 02:47:15;;;;;;;7.50;6.90;;;;;;;14.80;82.43;155161.31;5047828;28;20523;-78
2023/06/07 02:49:41;;;;;;;8.20;7.23;;;;;;;14.77;82.14;155153.50;5046477;28;20452;-78
2023/06/07 02:52:10;;;;;;;8.87;8.07;;;;;;;14.59;82.74;155109.31;5041643;28;20451;-78
2023/06/07 02:54:39;;;;;;;10.10;9.10;;;;;;;14.49;83.37;155083.34;5034840;28;20832;-78
2023/06/07 02:57:07;;;;;;;8.40;7.70;;;;;;;14.43;83.62;155067.75;5045502;28;20452;-78
2023/06/07 02:59:33;;;;;;;8.60;7.80;;;;;;;14.36;84.01;155049.59;5067795;28;20525;-78
2023/06/07 03:02:00;;;;;;;8.83;8.07;;;;;;;14.38;86.13;155053.47;5048003;28;20456;-78
2023/06/07 03:04:28;;;;;;;8.23;7.63;;;;;;;14.38;85.55;155054.75;5048200;28;20846;-78
2023/06/07 03:06:58;;;;;;;8.80;8.10;;;;;;;14.37;85.76;155050.88;5033846;28;20461;-78
2023/06/07 03:09:32;;;;;;;7.40;6.80;;;;;;;14.37;84.27;155052.19;5048456;28;20548;-78
2023/06/07 03:11:59;;;;;;;8.97;8.27;;;;;;;14.42;83.23;155063.88;5049672;28;20961;-78
2023/06/07 03:14:30;;;;;;;8.90;8.10;;;;;;;14.39;83.35;155057.38;5045947;28;20449;-78
2023/06/07 03:16:56;;;;;;;8.20;7.50;;;;;;;14.39;82.89;155057.38;5045361;28;20477;-78
2023/06/07 03:19:23;;;;;;;8.73;7.83;;;;;;;14.38;83.31;155053.47;5049235;28;20485;-78
2023/06/07 03:21:52;;;;;;;8.13;7.43;;;;;;;14.27;83.26;155026.13;5029453;28;20465;-78
2023/06/07 03:24:19;;;;;;;10.67;8.33;;;;;;;14.15;84.88;154995.00;5049121;28;20482;-78
2023/06/07 03:26:47;;;;;;;7.77;7.17;;;;;;;14.08;85.07;154976.84;5026911;28;20642;-78
2023/06/07 03:29:16;;;;;;;8.97;8.17;;;;;;;14.04;85.94;154966.41;5033232;28;20446;-78
2023/06/07 03:31:43;;;;;;;9.27;8.47;;;;;;;14.01;86.15;154958.63;5032201;28;20936;-78
2023/06/07 03:34:14;;;;;;;8.03;7.33;;;;;;;13.97;86.40;154948.25;5039334;28;20525;-78
2023/06/07 03:36:40;;;;;;;8.87;8.07;;;;;;;14.02;86.53;154961.25;5063899;28;20464;-78
2023/06/07 03:39:09;;;;;;;8.40;7.70;;;;;;;14.09;87.02;154979.41;5034141;28;20864;-78
2023/06/07 03:41:36;;;;;;;8.47;7.63;;;;;;;14.13;87.07;154989.81;5044431;28;20619;-78
2023/06/07 03:44:07;;;;;;;8.50;7.80;;;;;;;14.14;86.31;154992.38;5024995;28;21003;-78
2023/06/07 03:46:34;;;;;;;8.03;7.33;;;;;;;14.14;86.73;154992.38;5029903;28;20462;-78
2023/06/07 03:49:01;;;;;;;8.80;8.00;;;;;;;14.11;87.09;154984.59;5028672;28;21161;-78
2023/06/07 03:51:27;;;;;;;7.40;6.80;;;;;;;14.07;87.67;154972.91;5044370;28;20464;-78
2023/06/07 03:53:57;;;;;;;8.50;7.80;;;;;;;14.10;87.92;154982.03;5028108;28;21045;-78
2023/06/07 03:56:25;;;;;;;9.70;8.80;;;;;;;14.13;88.84;154988.50;5047180;28;20899;-78
2023/06/07 03:58:53;;;;;;;8.30;7.60;;;;;;;14.19;89.36;155005.34;5028119;28;21600;-78
2023/06/07 04:01:25;;;;;;;8.60;7.80;;;;;;;14.25;89.76;155020.94;5041034;28;20883;-78
2023/06/07 04:03:52;;;;;;;7.97;7.20;;;;;;;14.27;89.42;155026.13;5036863;28;21064;-78
2023/06/07 04:06:20;;;;;;;7.43;6.83;;;;;;;14.35;88.49;155046.97;5042934;28;20461;-78
2023/06/07 04:08:47;;;;;;;7.70;7.00;;;;;;;14.46;87.89;155075.53;5029705;28;20454;-78
2023/06/07 04:11:13;;;;;;;8.20;7.50;;;;;;;14.57;88.85;155104.13;5036508;28;20511;-78
2023/06/07 04:13:42;;;;;;;9.23;8.30;;;;;;;14.70;86.56;155135.28;5024836;28;21113;-78
2023/06/07 04:16:09;;;;;;;9.50;8.70;;;;;;;14.89;88.56;155184.66;5046231;28;20486;-78
2023/06/07 04:18:37;;;;;;;9.70;8.70;;;;;;;15.03;88.77;155221.03;5029274;28;20735;-78
2023/06/07 04:21:05;;;;;;;8.40;7.60;;;;;;;15.13;87.02;155247.03;5067916;28;20474;-78
2023/06/07 04:23:32;;;;;;;8.37;7.67;;;;;;;15.24;86.93;155275.63;5035853;28;20474;-78
2023/06/07 04:25:59;;;;;;;8.97;8.17;;;;;;;15.25;84.72;155279.50;5046451;28;20447;-78
2023/06/07 04:28:27;;;;;;;9.90;8.90;;;;;;;15.33;83.70;155298.97;5045807;28;20995;-78
2023/06/07 04:30:58;;;;;;;7.57;6.97;;;;;;;15.46;82.62;155332.81;5027974;28;20457;-78
2023/06/07 04:33:27;;;;;;;8.97;8.27;;;;;;;15.63;82.63;155377.03;5035001;28;20557;-78
2023/06/07 04:35:57;;;;;;;8.70;8.00;;;;;;;15.84;83.75;155431.63;5023794;28;20529;-78
2023/06/07 04:38:25;;;;;;;9.63;8.80;;;;;;;16.00;84.24;155471.94;5039849;28;20552;-78
2023/06/07 04:41:13;;;;;;;9.73;8.93;;;;;;;16.10;84.03;155497.94;5025366;28;20480;-78
2023/06/07 04:43:53;;;;;;;12.20;9.87;;;;;;;16.34;83.23;155560.34;5043261;28;20466;-79
2023/06/07 04:46:26;;;;;;;10.40;9.60;;;;;;;16.56;80.99;155615.03;5028675;28;20459;-79
2023/06/07 04:48:52;;;;;;;10.50;9.60;;;;;;;16.71;81.65;155655.34;5043129;28;20457;-79
2023/06/07 04:51:22;;;;;;;11.23;10.23;;;;;;;16.80;80.22;155678.78;5040983;28;20442;-79
2023/06/07 04:53:53;;;;;;;10.90;9.87;;;;;;;16.90;78.84;155704.81;5045903;28;20439;-79
2023/06/07 04:56:22;;;;;;;10.70;9.80;;;;;;;17.01;77.93;155733.44;5025548;28;20447;-79
2023/06/07 04:58:52;;;;;;;11.97;10.97;;;;;;;17.11;76.38;155756.84;5025399;28;20443;-79
2023/06/07 05:01:19;;;;;;;10.90;10.00;;;;;;;17.22;76.86;155785.47;5024497;28;20446;-79
2023/06/07 05:03:46;;;;;;;10.97;10.03;;;;;;;17.29;75.63;155803.72;5039948;28;20568;-79
2023/06/07 05:06:18;;;;;;;11.13;10.10;;;;;;;17.35;75.33;155820.63;5026285;28;20462;-79
2023/06/07 05:08:48;;;;;;;11.57;10.57;;;;;;;17.45;75.98;155845.34;5043462;28;20545;-79
2023/06/07 05:11:14;;;;;;;10.77;9.87;;;;;;;17.51;74.91;155862.28;5045140;28;20813;-79
2023/06/07 05:13:42;;;;;;;11.20;10.20;;;;;;;17.57;74.19;155876.66;5023857;28;20830;-79
2023/06/07 05:16:15;;;;;;;12.73;11.00;;;;;;;17.64;74.88;155896.16;5023860;28;20486;-79
2023/06/07 05:18:42;;;;;;;10.97;9.97;;;;;;;17.70;75.05;155910.50;5040959;28;20490;-80
2023/06/07 05:21:09;;;;;;;9.70;8.93;;;;;;;17.79;75.27;155932.63;5028204;28;20471;-79
2023/06/07 05:23:36;;;;;;;10.10;9.30;;;;;;;17.84;75.56;155945.66;5044232;28;20542;-79
2023/06/07 05:26:04;;;;;;;10.80;9.90;;;;;;;17.94;74.95;155971.69;5039298;28;20532;-79
2023/06/07 05:28:30;;;;;;;10.30;9.40;;;;;;;18.04;74.46;155999.03;5039698;28;20451;-79
2023/06/07 05:30:58;;;;;;;14.93;9.73;;;;;;;18.03;74.48;155996.41;5039653;28;20898;-79
2023/06/07 05:33:26;;;;;;;10.37;9.47;;;;;;;18.08;74.62;156009.41;5023633;28;20501;-79
2023/06/07 05:35:53;;;;;;;10.90;9.90;;;;;;;18.21;74.00;156042.00;5051249;28;20443;-79
2023/06/07 05:38:19;;;;;;;11.27;9.50;;;;;;;18.22;74.75;156045.91;5043987;28;20552;-79
2023/06/07 05:40:47;;;;;;;10.80;9.90;;;;;;;18.45;74.03;156103.22;5035279;28;20556;-79
2023/06/07 05:43:15;;;;;;;9.93;9.13;;;;;;;18.52;72.55;156122.81;5035563;28;20455;-79
2023/06/07 05:45:42;;;;;;;10.70;9.80;;;;;;;18.63;72.77;156150.16;5038688;28;20532;-79
2023/06/07 05:48:10;;;;;;;11.90;10.90;;;;;;;18.74;71.66;156178.84;5043672;28;20481;-79
2023/06/07 05:50:37;;;;;;;10.93;9.70;;;;;;;18.87;71.80;156212.72;5023548;28;20451;-79
2023/06/07 05:53:03;;;;;;;10.20;9.30;;;;;;;18.84;71.27;156206.19;5037791;28;20479;-79
2023/06/07 05:55:30;;;;;;;10.60;9.70;;;;;;;18.85;71.27;156207.47;5034369;28;20462;-79
2023/06/07 05:57:57;;;;;;;10.90;9.90;;;;;;;19.10;70.75;156271.31;5012614;28;20452;-79
2023/06/07 06:00:25;;;;;;;11.40;10.07;;;;;;;19.15;69.92;156285.66;5031744;28;20578;-79
2023/06/07 06:02:52;;;;;;;9.60;8.90;;;;;;;19.28;70.27;156319.53;5042970;28;20469;-79
2023/06/07 06:05:20;;;;;;;9.87;9.07;;;;;;;19.54;69.03;156384.78;5041585;28;20993;-79
2023/06/07 06:07:47;;;;;;;10.03;9.10;;;;;;;19.61;68.47;156403.03;5037228;28;21056;-80
2023/06/07 06:10:13;;;;;;;9.80;8.90;;;;;;;19.53;68.88;156382.16;5041272;28;20462;-80
2023/06/07 06:12:40;;;;;;;10.10;9.33;;;;;;;19.59;68.16;156397.81;5035542;28;20994;-80
2023/06/07 06:15:09;;;;;;;10.77;9.70;;;;;;;19.66;68.23;156416.06;5043747;28;21008;-80
2023/06/07 06:17:37;;;;;;;10.00;9.00;;;;;;;19.64;67.96;156410.84;5057668;28;20447;-80
2023/06/07 06:20:05;;;;;;;10.50;9.60;;;;;;;19.77;67.79;156444.75;5039806;28;20464;-80
2023/06/07 06:22:31;;;;;;;10.07;9.17;;;;;;;19.82;67.03;156457.78;5063728;28;20888;-79
2023/06/07 06:24:58;;;;;;;8.67;7.97;;;;;;;19.83;67.60;156460.41;5052470;28;20470;-79
2023/06/07 06:27:24;;;;;;;10.57;9.67;;;;;;;19.95;66.49;156493.00;5040883;28;20451;-79
2023/06/07 06:29:51;;;;;;;10.10;9.20;;;;;;;19.80;67.60;156453.84;5032501;28;20484;-80
2023/06/07 06:32:17;;;;;;;9.73;8.83;;;;;;;19.99;68.07;156502.09;5047785;28;20459;-79
2023/06/07 06:34:45;;;;;;;9.23;8.43;;;;;;;19.97;66.67;156496.88;5050598;28;21198;-79
2023/06/07 06:37:12;;;;;;;8.73;8.03;;;;;;;19.78;66.77;156447.31;5041540;28;20486;-80
2023/06/07 06:39:38;;;;;;;9.10;8.30;;;;;;;19.86;67.91;156468.19;5035590;28;20904;-79
2023/06/07 06:42:06;;;;;;;9.50;8.70;;;;;;;20.17;66.31;156549.06;5035980;28;20839;-79
2023/06/07 06:44:56;;;;;;;9.50;8.60;;;;;;;20.05;66.58;156519.06;5054881;28;22120;-79
2023/06/07 06:47:24;;;;;;;10.60;8.60;;;;;;;20.31;65.43;156584.31;5043995;28;20473;-79
2023/06/07 06:49:53;;;;;;;9.23;8.27;;;;;;;20.43;65.51;156615.63;5042000;28;20451;-79
2023/06/07 06:52:20;;;;;;;8.97;8.17;;;;;;;20.35;65.32;156594.75;5049677;28;20536;-79
2023/06/07 06:54:46;;;;;;;9.67;8.77;;;;;;;20.55;64.65;156648.22;5024512;28;20444;-79
2023/06/07 06:57:13;;;;;;;8.60;7.90;;;;;;;20.78;64.63;156705.66;5042052;28;20854;-86
2023/06/07 06:59:40;;;;;;;7.50;6.90;;;;;;;20.87;64.67;156729.09;5049449;28;20435;-86
2023/06/07 07:02:06;;;;;;;7.60;7.00;;;;;;;21.20;62.58;156815.31;5049503;28;20501;-86
2023/06/07 07:04:34;;;;;;;10.07;6.23;;;;;;;21.32;61.74;156845.31;5049299;28;20466;-87
2023/06/07 07:07:02;;;;;;;8.30;7.50;;;;;;;21.02;62.51;156768.28;5029364;28;20467;-87
2023/06/07 07:09:30;;;;;;;8.50;7.90;;;;;;;20.96;62.02;156752.63;5026833;28;20450;-88
2023/06/07 07:11:56;;;;;;;8.10;7.30;;;;;;;20.79;63.67;156709.53;5028917;28;20524;-88
2023/06/07 07:14:23;;;;;;;8.23;7.53;;;;;;;20.80;64.24;156712.16;5049520;28;20457;-88
2023/06/07 07:16:50;;;;;;;8.03;7.33;;;;;;;21.14;63.78;156800.94;5044714;28;20550;-87
2023/06/07 07:19:16;;;;;;;8.43;7.73;;;;;;;21.29;62.06;156838.78;5067373;28;20435;-87
2023/06/07 07:21:44;;;;;;;8.00;7.27;;;;;;;21.24;63.15;156827.03;5070478;28;20508;-87
2023/06/07 07:24:11;;;;;;;7.80;7.10;;;;;;;21.61;62.84;156922.31;5036663;28;20528;-88
2023/06/07 07:26:48;;;;;;;7.80;7.20;;;;;;;21.72;61.78;156951.06;5016934;28;20451;-87
2023/06/07 07:29:15;;;;;;;9.03;8.23;;;;;;;21.79;61.04;156968.00;5010940;28;20454;-88
2023/06/07 07:31:41;;;;;;;8.50;7.77;;;;;;;21.83;60.64;156978.47;5035838;28;20518;-87
2023/06/07 07:34:10;;;;;;;8.80;7.90;;;;;;;21.92;60.83;157000.72;5016115;28;20490;-88
2023/06/07 07:36:37;;;;;;;8.00;7.30;;;;;;;22.07;59.73;157039.88;5011532;28;20743;-87
2023/06/07 07:39:05;;;;;;;7.17;6.67;;;;;;;22.09;59.83;157045.09;5011434;28;20529;-88
2023/06/07 07:41:33;;;;;;;7.83;7.13;;;;;;;22.17;59.32;157067.31;5005975;28;20478;-88
2023/06/07 07:44:00;;;;;;;6.70;6.20;;;;;;;22.44;59.02;157137.84;5011432;28;20456;-88
2023/06/07 07:46:26;;;;;;;6.37;5.83;;;;;;;22.61;58.03;157180.94;5018761;28;20509;-87
2023/06/07 07:48:53;;;;;;;6.47;5.97;;;;;;;22.70;57.63;157204.50;5027202;28;20452;-88
2023/06/07 07:51:22;;;;;;;6.37;5.87;;;;;;;22.82;57.14;157235.84;5009103;28;20555;-88
2023/06/07 07:53:52;;;;;;;5.70;5.20;;;;;;;23.01;56.67;157285.50;5011573;28;20452;-87
2023/06/07 07:56:18;;;;;;;6.77;5.20;;;;;;;23.01;55.89;157285.50;5030902;28;20424;-88
2023/06/07 07:58:49;;;;;;;5.60;5.10;;;;;;;23.14;55.12;157318.16;5017065;28;20547;-88
2023/06/07 08:01:16;;;;;;;5.80;5.30;;;;;;;23.00;55.19;157282.94;5024100;28;20436;-88
2023/06/07 08:03:43;;;;;;;6.00;5.40;;;;;;;23.16;55.75;157322.13;4998570;28;20456;-88
2023/06/07 08:06:09;;;;;;;5.03;4.63;;;;;;;23.46;54.46;157400.56;5019678;28;20601;-88
2023/06/07 08:08:36;;;;;;;5.23;4.83;;;;;;;23.76;54.23;157479.00;5012590;28;20541;-88
2023/06/07 08:11:03;;;;;;;4.67;4.33;;;;;;;24.03;53.20;157549.63;5049252;28;20522;-88
2023/06/07 08:13:30;;;;;;;6.00;5.40;;;;;;;24.40;51.82;157643.81;5025965;28;20451;-88
2023/06/07 08:16:04;;;;;;;5.37;4.90;;;;;;;24.08;52.65;157562.75;5028185;28;20468;-88
2023/06/07 08:18:33;;;;;;;6.97;5.50;;;;;;;24.18;52.34;157587.56;5003629;28;20486;-88
2023/06/07 08:21:00;;;;;;;5.50;5.10;;;;;;;24.35;51.81;157632.06;4993066;28;20468;-89
2023/06/07 08:23:27;;;;;;;5.20;4.80;;;;;;;24.04;51.71;157550.94;5025925;28;20915;-88
2023/06/07 08:25:53;;;;;;;5.60;5.20;;;;;;;24.03;52.21;157548.31;5018424;28;20833;-88
2023/06/07 08:28:20;;;;;;;6.10;5.60;;;;;;;24.01;51.55;157544.34;5005158;28;20466;-89
2023/06/07 08:30:48;;;;;;;6.60;5.33;;;;;;;24.22;52.28;157599.31;5046913;28;20462;-89
2023/06/07 08:33:17;;;;;;;5.40;5.00;;;;;;;24.61;51.86;157700.06;5013596;28;20852;-89
2023/06/07 08:35:44;;;;;;;5.93;5.53;;;;;;;24.68;50.46;157717.06;5028887;28;20454;-89
2023/06/07 08:38:14;;;;;;;5.83;5.27;;;;;;;24.73;50.73;157730.13;4993959;28;20447;-88
2023/06/07 08:40:42;;;;;;;6.80;6.30;;;;;;;24.58;50.38;157690.91;4994095;28;20517;-88
2023/06/07 08:43:09;;;;;;;5.60;5.20;;;;;;;24.36;51.64;157633.38;5022280;28;20481;-89
2023/06/07 08:45:37;;;;;;;6.27;5.77;;;;;;;24.41;50.37;157646.47;5030688;28;20486;-89
2023/06/07 08:48:08;;;;;;;5.83;5.33;;;;;;;24.17;50.99;157585.00;5013954;28;20517;-89
2023/06/07 08:50:37;;;;;;;5.70;5.20;;;;;;;24.30;50.75;157619.00;5030974;28;20465;-89
2023/06/07 08:53:06;;;;;;;4.90;4.50;;;;;;;24.67;50.03;157714.47;5034833;28;20826;-89
2023/06/07 08:55:33;;;;;;;5.27;4.77;;;;;;;24.77;48.05;157740.63;5014342;28;20989;-88
2023/06/07 08:58:00;;;;;;;6.00;5.40;;;;;;;24.69;48.41;157719.69;5030994;28;20493;-88
2023/06/07 09:00:39;;;;;;;6.37;5.77;;;;;;;24.49;49.99;157668.66;5029647;28;20447;-89
2023/06/07 09:03:06;;;;;;;5.57;5.00;;;;;;;24.50;50.02;157669.97;5013744;28;20508;-88
2023/06/07 09:05:33;;;;;;;6.60;4.60;;;;;;;24.51;50.26;157672.59;5030372;28;20709;-88
2023/06/07 09:08:02;;;;;;;5.43;5.00;;;;;;;24.54;50.32;157680.47;5026970;28;20436;-88
2023/06/07 09:10:35;;;;;;;5.20;4.80;;;;;;;24.51;49.50;157672.59;5023205;28;20526;-88
2023/06/07 09:13:02;;;;;;;5.10;4.70;;;;;;;24.34;49.30;157628.13;5026899;28;20448;-88
2023/06/07 09:15:30;;;;;;;4.90;4.50;;;;;;;24.56;50.05;157685.69;5026588;28;20450;-89
2023/06/07 09:18:02;;;;;;;5.63;4.50;;;;;;;25.14;48.68;157836.19;5021876;28;20439;-88
2023/06/07 09:20:33;;;;;;;4.77;4.37;;;;;;;25.61;46.49;157957.94;5027754;28;20462;-88
2023/06/07 09:23:13;;;;;;;4.50;4.10;;;;;;;25.56;47.03;157946.16;5034653;28;20423;-88
2023/06/07 09:25:44;;;;;;;4.80;4.50;;;;;;;25.68;45.58;157977.56;5014744;28;20551;-88
2023/06/07 09:28:12;;;;;;;4.00;3.70;;;;;;;25.82;45.09;158012.91;5015479;23;20570;-81
2023/06/07 09:30:52;;;;;;;4.50;4.10;;;;;;;26.02;45.28;158065.31;5062224;28;20439;-81
2023/06/07 09:33:26;;;;;;;4.33;3.93;;;;;;;26.21;44.33;158113.81;5046403;28;20438;-81
2023/06/07 09:36:02;;;;;;;5.67;4.20;;;;;;;26.40;44.31;158164.84;5062198;28;20438;-81
2023/06/07 09:38:30;;;;;;;4.33;4.00;;;;;;;26.55;43.12;158204.19;5064378;28;20553;-81
2023/06/07 09:40:59;;;;;;;5.10;4.60;;;;;;;26.57;42.73;158208.06;5065656;28;20431;-81
2023/06/07 09:43:26;;;;;;;4.20;3.90;;;;;;;26.29;43.47;158136.03;5048508;28;20915;-81
2023/06/07 09:46:01;;;;;;;4.70;4.40;;;;;;;25.86;43.54;158023.41;5047925;28;20502;-81
2023/06/07 09:48:30;;;;;;;5.33;4.83;;;;;;;25.75;43.33;157994.59;5073740;28;20446;-81
2023/06/07 09:50:59;;;;;;;4.83;4.43;;;;;;;25.63;44.39;157963.19;5047163;28;20898;-81
2023/06/07 09:53:27;;;;;;;6.20;5.60;;;;;;;24.96;46.07;157789.09;5050809;28;20804;-81
2023/06/07 09:56:16;;;;;;;5.23;4.83;;;;;;;24.55;47.23;157684.38;5044887;28;20458;-81
2023/06/07 09:58:46;;;;;;;3.97;3.67;;;;;;;24.30;47.66;157619.00;5051840;28;20478;-81
2023/06/07 10:01:12;;;;;;;4.90;4.50;;;;;;;23.87;48.60;157507.78;5051553;28;20431;-80
2023/06/07 10:03:46;;;;;;;4.97;4.57;;;;;;;23.74;48.61;157472.47;5049128;28;20438;-81
2023/06/07 10:06:15;;;;;;;4.23;3.93;;;;;;;23.81;49.09;157492.06;5029836;28;20471;-81
2023/06/07 10:08:44;;;;;;;4.13;3.83;;;;;;;24.18;49.69;157588.91;5044757;28;20463;-81
2023/06/07 10:11:14;;;;;;;5.30;3.97;;;;;;;24.36;49.10;157634.66;5030258;28;20447;-81
2023/06/07 10:13:42;;;;;;;4.63;4.23;;;;;;;24.57;46.53;157688.31;5037156;28;20545;-81
2023/06/07 10:16:10;;;;;;;4.27;3.97;;;;;;;24.37;47.03;157637.28;5049365;28;20504;-82
2023/06/07 10:18:38;;;;;;;3.97;3.67;;;;;;;24.38;47.14;157638.59;5066515;28;20545;-82
2023/06/07 10:21:17;;;;;;;5.00;4.43;;;;;;;24.47;46.41;157662.13;5066636;28;21111;-81
2023/06/07 10:23:48;;;;;;;5.40;4.50;;;;;;;24.11;46.95;157570.59;5065077;28;20457;-81
2023/06/07 10:26:25;;;;;;;4.33;4.03;;;;;;;23.80;47.66;157488.19;5046974;28;21472;-80
2023/06/07 10:28:54;;;;;;;5.07;4.60;;;;;;;23.89;47.76;157513.00;5041744;28;20475;-81
2023/06/07 10:31:24;;;;;;;4.47;4.07;;;;;;;24.07;47.07;157560.06;5048241;28;21225;-80
2023/06/07 10:33:51;;;;;;;4.00;3.70;;;;;;;23.95;47.50;157527.38;5052570;28;20459;-80
2023/06/07 10:36:19;;;;;;;4.20;3.80;;;;;;;24.02;47.08;157547.00;5050958;28;20443;-80
2023/06/07 10:38:46;;;;;;;3.67;3.37;;;;;;;24.05;48.12;157554.84;5065682;28;20454;-81
2023/06/07 10:41:12;;;;;;;9.20;3.80;;;;;;;23.58;48.53;157433.28;5063750;28;20827;-80
2023/06/07 10:43:40;;;;;;;4.17;3.87;;;;;;;23.42;48.34;157391.44;5066082;28;20455;-80
2023/06/07 10:46:21;;;;;;;3.93;3.63;;;;;;;23.65;48.96;157450.25;5085010;28;20480;-80
2023/06/07 10:48:48;;;;;;;5.00;4.50;;;;;;;23.98;47.14;157536.56;5085431;28;20524;-80
2023/06/07 10:51:15;;;;;;;6.20;3.87;;;;;;;24.28;46.03;157612.44;5052407;28;20458;-80
2023/06/07 10:53:52;;;;;;;4.27;3.90;;;;;;;24.10;47.00;157567.97;5050388;28;20466;-80
2023/06/07 10:56:34;;;;;;;4.10;3.80;;;;;;;23.80;48.75;157489.44;5065159;28;20963;-80
2023/06/07 10:59:26;;;;;;;3.77;3.47;;;;;;;23.33;49.19;157366.53;5045470;28;20470;-80
2023/06/07 11:01:54;;;;;;;3.90;3.60;;;;;;;23.19;48.90;157331.28;5018058;28;20489;-80
2023/06/07 11:04:56;;;;;;;3.70;3.40;;;;;;;23.18;49.76;157327.34;5030329;28;20458;-80
2023/06/07 11:07:23;;;;;;;3.83;3.53;;;;;;;23.37;48.86;157377.06;5030003;28;20467;-80
2023/06/07 11:09:51;;;;;;;4.03;3.73;;;;;;;23.29;48.84;157356.09;5047097;28;20566;-80
2023/06/07 11:12:54;;;;;;;5.00;4.60;;;;;;;23.69;47.90;157459.41;5065086;28;20463;-80
2023/06/07 11:15:25;;;;;;;4.40;4.10;;;;;;;23.77;47.86;157480.31;5049888;28;20469;-80
2023/06/07 11:17:53;;;;;;;4.40;4.00;;;;;;;23.75;48.35;157476.38;5048174;28;20821;-80
2023/06/07 11:20:50;;;;;;;4.07;3.77;;;;;;;23.54;49.60;157422.78;5062836;28;20501;-80
2023/06/07 11:23:26;;;;;;;5.47;4.03;;;;;;;23.44;48.88;157395.34;5046658;28;21060;-79
2023/06/07 11:25:55;;;;;;;4.53;4.23;;;;;;;23.28;49.39;157354.78;5049936;28;20541;-79
2023/06/07 11:28:22;;;;;;;3.90;3.60;;;;;;;23.42;49.04;157390.13;5066541;28;20525;-80
2023/06/07 11:30:51;;;;;;;4.30;4.00;;;;;;;23.29;47.93;157357.41;5046597;28;20435;-79
2023/06/07 11:33:19;;;;;;;4.10;3.80;;;;;;;23.26;47.95;157348.25;5064479;28;21027;-79